Hamburg, Wisconsin
Current Conditions -  °F | °C
As of 5:15 PM on Sunday 21 Dec 2014 (Local Time) from KMDZ Reporting Station
Drizzle Drizzle  
Wind Chill: 23°   Ceiling: 300
Heat Index: 32°   Visibility: 2mi
Dew Point: 32°   Wind: 13mph
Humidity: 100%   Direction: 150°SSE
Pressure: 29.84"   Gusts: 21mph
Location:  45.0406°N, 90.0529°W
Report Text: KMDZ 212315Z AUTO 15011G18KT 2SM DZ OVC003 00/00 A2984 RMK AO2 T00000000
Loading
Personal Weather Stations






























Interactive Weather Map New forecast layout! Learn more

10-Day Weather Forecast

Advertisements
Track Severe Weather on mobile